Bookmark and Share
Track history (hours):
 

Robert E. Mcallister

More information available from US FCC via Universal Licensing System and Coast Guard Vessel Documentation Center.

Last reported at 2014-Apr-18 12:03 UTC. Time now 2014-Apr-18 13:10 UTC.
Position N 40°27' W 074°03'.

Length 34 m; draft 4.3 m.

Type: Tug. MMSI: 367091120.

NotesDate/timePositionNaut miles runAvg speedWind from/ knotsBaromVisibWave heightAir tempDewpointWater temp
2014-Apr-18 12:03N 40°27' W 074°03'2 4.3
2014-Apr-18 11:32N 40°29' W 074°03'1010.1
2014-Apr-18 10:33N 40°39' W 074°07'2 2.0
2014-Apr-18 09:29N 40°38' W 074°10'0 0.0
2014-Apr-18 08:33N 40°38' W 074°10'0 0.0
2014-Apr-18 06:33N 40°38' W 074°10'0 0.0
2014-Apr-18 05:33N 40°38' W 074°10'0 0.0
2014-Apr-18 04:33N 40°38' W 074°10'1 0.7
2014-Apr-18 03:34N 40°39' W 074°09'5 5.1
2014-Apr-18 02:33N 40°37' W 074°03'12 8.7
2014-Apr-18 01:07N 40°28' W 073°51'2 2.6
2014-Apr-18 00:25N 40°29' W 073°53'8 9.1
2014-Apr-17 23:33N 40°33' W 074°02'8 8.1
2014-Apr-17 22:33N 40°38' W 074°10'0 0.1
2014-Apr-17 21:34N 40°38' W 074°10'0 0.0
2014-Apr-17 20:34N 40°38' W 074°10'0 0.0
2014-Apr-17 19:34N 40°38' W 074°10'0 0.0
2014-Apr-17 18:33N 40°38' W 074°10'0 0.0
2014-Apr-17 17:33N 40°38' W 074°10'0 0.0
2014-Apr-17 16:34N 40°38' W 074°10'0 0.0
2014-Apr-17 15:33N 40°38' W 074°10'0 0.0
2014-Apr-17 14:34N 40°38' W 074°10'0 0.0
2014-Apr-17 13:34N 40°38' W 074°10'0 0.0
2014-Apr-17 12:34N 40°38' W 074°10'5 5.0
2014-Apr-17 11:34N 40°39' W 074°03'1 0.9
2014-Apr-17 10:34N 40°39' W 074°04'3 2.9
2014-Apr-17 09:33N 40°40' W 074°08'1 0.8
2014-Apr-17 08:33N 40°41' W 074°09'2 2.5
2014-Apr-17 07:34N 40°38' W 074°10'0 0.0
2014-Apr-17 06:34N 40°38' W 074°10'0 0.0
2014-Apr-17 05:34N 40°38' W 074°10'1 0.4
2014-Apr-17 04:12N 40°39' W 074°09'1 0.9
2014-Apr-17 03:34N 40°38' W 074°10'0 0.0
2014-Apr-17 02:33N 40°38' W 074°10'0 0.0
2014-Apr-17 01:31N 40°38' W 074°10'0 0.0
2014-Apr-17 00:33N 40°38' W 074°10'0 0.0
2014-Apr-16 23:34N 40°38' W 074°10'2 2.3
2014-Apr-16 22:33N 40°40' W 074°08'2 1.9
2014-Apr-16 21:33N 40°39' W 074°08'4 3.8
2014-Apr-16 20:33N 40°38' W 074°04'4 4.4
2014-Apr-16 19:33N 40°40' W 074°08'1 0.6
2014-Apr-16 18:33N 40°41' W 074°09'2 2.4
2014-Apr-16 17:33N 40°38' W 074°10'0 0.0
2014-Apr-16 16:33N 40°38' W 074°10'0 0.0
2014-Apr-16 15:33N 40°38' W 074°10'0 0.0
2014-Apr-16 14:33N 40°38' W 074°10'0 0.0
2014-Apr-16 13:33N 40°38' W 074°10'0 0.0
2014-Apr-16 12:33N 40°38' W 074°10'2 2.1
2014-Apr-16 11:33N 40°40' W 074°08'2 1.7
2014-Apr-16 10:33N 40°38' W 074°09'4 4.3
2014-Apr-16 09:33N 40°37' W 074°03'5 5.2
2014-Apr-16 08:33N 40°38' W 074°10'0 0.0
2014-Apr-16 07:33N 40°38' W 074°10'0 0.0
2014-Apr-16 06:33N 40°38' W 074°10'0 0.0
2014-Apr-16 05:33N 40°38' W 074°10'0 0.0
2014-Apr-16 04:33N 40°38' W 074°10'0 0.0
2014-Apr-16 03:33N 40°38' W 074°10'2 2.4
2014-Apr-16 02:33N 40°41' W 074°09'2 2.3
2014-Apr-16 01:33N 40°39' W 074°08'4 3.7
2014-Apr-16 00:33N 40°38' W 074°03'3 2.8
2014-Apr-15 23:33N 40°39' W 074°06'7 5.3
2014-Apr-15 22:19N 40°34' W 074°13'4 4.7
2014-Apr-15 21:33N 40°38' W 074°12'0 0.1
2014-Apr-15 20:30N 40°38' W 074°12'2 1.9
2014-Apr-15 19:33N 40°38' W 074°10'0 0.0
2014-Apr-15 18:23N 40°38' W 074°10'0 0.0
2014-Apr-15 17:28N 40°38' W 074°10'0 0.0
2014-Apr-15 16:33N 40°38' W 074°10'3 3.0
2014-Apr-15 15:33N 40°39' W 074°06'3 2.9
2014-Apr-15 14:34N 40°41' W 074°09'0 0.1
2014-Apr-15 12:34N 40°41' W 074°09'2 2.3
2014-Apr-15 11:31N 40°38' W 074°10'0 0.0
2014-Apr-15 10:34N 40°38' W 074°10'0 0.0
2014-Apr-15 09:34N 40°38' W 074°10'0 0.0
2014-Apr-15 08:34N 40°38' W 074°10'0 0.0
2014-Apr-15 07:34N 40°38' W 074°10'0 0.0
2014-Apr-15 06:34N 40°38' W 074°10'0 0.0
2014-Apr-15 05:34N 40°38' W 074°10'6 3.0
2014-Apr-15 03:34N 40°33' W 074°14'0 0.0
2014-Apr-15 02:30N 40°33' W 074°14'9 1.6
2014-Apr-14 20:34N 40°39' W 074°05'1 1.1
2014-Apr-14 19:32N 40°39' W 074°03'1 1.3
2014-Apr-14 18:34N 40°38' W 074°04'3 3.2
2014-Apr-14 17:33N 40°39' W 074°08'2 1.7
2014-Apr-14 16:33N 40°40' W 074°08'2 2.1
2014-Apr-14 15:34N 40°38' W 074°10'0 0.0
2014-Apr-14 14:34N 40°38' W 074°10'0 0.0
2014-Apr-14 13:34N 40°38' W 074°10'1 0.7
2014-Apr-14 11:33N 40°38' W 074°12'6 5.9
2014-Apr-14 10:33N 40°39' W 074°04'1 0.9
2014-Apr-14 09:33N 40°38' W 074°03'2 1.8
2014-Apr-14 08:33N 40°40' W 074°04'5 4.6
2014-Apr-14 07:33N 40°38' W 074°10'3 0.4
2014-Apr-13 22:33N 40°41' W 074°08'0 0.4
2014-Apr-13 21:33N 40°41' W 074°08'4 4.5
2014-Apr-13 20:33N 40°38' W 074°03'5 5.0
2014-Apr-13 19:33N 40°38' W 074°10'0 0.0
2014-Apr-13 18:32N 40°38' W 074°10'0 0.0
2014-Apr-13 17:33N 40°38' W 074°10'2 2.4
2014-Apr-13 16:33N 40°41' W 074°08'1 1.4
2014-Apr-13 15:33N 40°39' W 074°09'3 3.0
2014-Apr-13 14:33N 40°40' W 074°05'0 0.0
2014-Apr-13 13:33N 40°40' W 074°05'0 0.0
2014-Apr-13 12:33N 40°40' W 074°05'0 0.0
2014-Apr-13 11:34N 40°40' W 074°05'0 0.0
2014-Apr-13 10:33N 40°40' W 074°05'0 0.0
2014-Apr-13 09:33N 40°40' W 074°05'1 1.2
2014-Apr-13 08:33N 40°40' W 074°04'1 1.0
2014-Apr-13 07:33N 40°40' W 074°05'1 1.0
2014-Apr-13 06:33N 40°39' W 074°05'4 4.1
2014-Apr-13 05:33N 40°38' W 074°10'0 0.0
2014-Apr-13 04:33N 40°38' W 074°10'0 0.0
2014-Apr-13 03:33N 40°38' W 074°10'1 1.3
2014-Apr-13 02:33N 40°39' W 074°09'1 1.0
2014-Apr-13 01:33N 40°40' W 074°08'2 2.2
2014-Apr-13 00:33N 40°38' W 074°10'0 0.0
2014-Apr-12 23:30N 40°38' W 074°10'2 2.2
2014-Apr-12 22:33N 40°40' W 074°08'2 1.6
2014-Apr-12 21:33N 40°39' W 074°08'4 4.3
2014-Apr-12 20:33N 40°37' W 074°03'5 5.4
2014-Apr-12 19:33N 40°38' W 074°10'0 0.0
2014-Apr-12 18:33N 40°38' W 074°10'2 1.7
2014-Apr-12 17:33N 40°40' W 074°09'0 0.4
2014-Apr-12 16:33N 40°40' W 074°09'0 0.0
2014-Apr-12 15:33N 40°40' W 074°09'0 0.0
2014-Apr-12 14:33N 40°40' W 074°09'1 1.0
2014-Apr-12 13:33N 40°40' W 074°08'0 0.5
2014-Apr-12 12:33N 40°41' W 074°09'0 0.0
2014-Apr-12 11:33N 40°41' W 074°09'0 0.0
2014-Apr-12 10:33N 40°41' W 074°09'1 0.7
2014-Apr-12 09:33N 40°40' W 074°08'5 4.6
2014-Apr-12 08:34N 40°38' W 074°03'5 5.2
2014-Apr-12 07:33N 40°38' W 074°10'0 0.0
2014-Apr-12 05:33N 40°38' W 074°10'1 1.4
2014-Apr-12 04:33N 40°40' W 074°09'0 0.0
2014-Apr-12 02:33N 40°40' W 074°09'3 3.4
2014-Apr-12 01:33N 40°40' W 074°05'2 1.6
2014-Apr-12 00:34N 40°39' W 074°03'2 1.9
2014-Apr-11 23:34N 40°39' W 074°06'2 2.2
2014-Apr-11 22:33N 40°40' W 074°09'1 1.1
2014-Apr-11 21:29N 40°41' W 074°08'3 3.4
2014-Apr-11 20:33N 40°39' W 074°04'4 3.6
2014-Apr-11 19:33N 40°38' W 074°09'1 0.6
2014-Apr-11 18:34N 40°38' W 074°10'0 0.0
2014-Apr-11 17:34N 40°38' W 074°10'0 0.0
2014-Apr-11 16:34N 40°38' W 074°10'0 0.0
2014-Apr-11 15:33N 40°38' W 074°10'0 0.0
2014-Apr-11 14:33N 40°38' W 074°10'0 0.0
2014-Apr-11 13:33N 40°38' W 074°10'3 2.8
2014-Apr-11 12:33N 40°39' W 074°06'2 2.3
2014-Apr-11 11:33N 40°40' W 074°08'0 0.2
2014-Apr-11 10:34N 40°40' W 074°08'3 2.7
2014-Apr-11 09:33N 40°39' W 074°05'1 0.8
2014-Apr-11 08:34N 40°39' W 074°04'4 4.3
2014-Apr-11 07:33N 40°38' W 074°10'0 0.0
2014-Apr-11 06:33N 40°38' W 074°10'0 0.0
2014-Apr-11 05:34N 40°38' W 074°10'0 0.0
2014-Apr-11 04:33N 40°38' W 074°10'0 0.0
2014-Apr-11 03:34N 40°38' W 074°10'0 0.0
2014-Apr-11 02:34N 40°38' W 074°10'0 0.0
2014-Apr-11 01:34N 40°38' W 074°10'0 0.0
2014-Apr-11 00:33N 40°38' W 074°10'0 0.0
2014-Apr-10 23:33N 40°38' W 074°10'0 0.0
2014-Apr-10 22:34N 40°38' W 074°10'2 1.6
2014-Apr-10 21:33N 40°40' W 074°09'1 1.1
2014-Apr-10 20:33N 40°39' W 074°09'5 4.9
2014-Apr-10 19:33N 40°38' W 074°03'1 1.1
2014-Apr-10 18:34N 40°38' W 074°04'0 0.0
2014-Apr-10 17:33N 40°38' W 074°04'4 3.9
2014-Apr-10 16:33N 40°40' W 074°09'1 1.4
2014-Apr-10 15:33N 40°38' W 074°10'0 0.2
2014-Apr-10 14:34N 40°38' W 074°10'0 0.0
2014-Apr-10 13:33N 40°38' W 074°10'0 0.0
2014-Apr-10 12:33N 40°38' W 074°10'4 4.5
2014-Apr-10 11:34N 40°40' W 074°04'2 2.4
2014-Apr-10 10:33N 40°38' W 074°03'2 2.2
2014-Apr-10 09:34N 40°40' W 074°04'3 3.2
2014-Apr-10 08:33N 40°40' W 074°08'1 0.7
2014-Apr-10 07:34N 40°40' W 074°09'2 1.5
2014-Apr-10 06:34N 40°38' W 074°10'0 0.0
2014-Apr-10 05:34N 40°38' W 074°10'0 0.0
2014-Apr-10 04:34N 40°38' W 074°10'0 0.0
2014-Apr-10 03:34N 40°38' W 074°10'3 2.6
2014-Apr-10 02:31N 40°41' W 074°09'3 2.9
2014-Apr-10 01:33N 40°38' W 074°10'0 0.0
2014-Apr-10 00:34N 40°38' W 074°10'0 0.0
2014-Apr-09 23:33N 40°38' W 074°10'0 0.0
2014-Apr-09 22:33N 40°38' W 074°10'1 1.3
2014-Apr-09 21:34N 40°40' W 074°09'2 1.6
2014-Apr-09 20:33N 40°41' W 074°08'1 1.5
2014-Apr-09 19:33N 40°40' W 074°09'2 1.5
2014-Apr-09 18:33N 40°38' W 074°10'0 0.0
2014-Apr-09 17:22N 40°38' W 074°10'0 0.0
2014-Apr-09 16:29N 40°38' W 074°10'0 0.0
2014-Apr-09 15:33N 40°38' W 074°10'0 0.0
2014-Apr-09 14:33N 40°38' W 074°10'0 0.0
2014-Apr-09 13:26N 40°38' W 074°10'0 0.0
2014-Apr-09 12:31N 40°38' W 074°10'0 0.0
2014-Apr-09 11:33N 40°38' W 074°10'0 0.0
2014-Apr-09 10:33N 40°38' W 074°10'0 0.0
2014-Apr-09 09:23N 40°38' W 074°10'0 0.0
2014-Apr-09 08:26N 40°38' W 074°10'0 0.0
2014-Apr-09 07:25N 40°38' W 074°10'0 0.0
2014-Apr-09 06:23N 40°38' W 074°10'0 0.0
2014-Apr-09 05:33N 40°38' W 074°10'0 0.0
2014-Apr-09 04:33N 40°38' W 074°10'0 0.0
2014-Apr-09 03:33N 40°38' W 074°10'8 6.1
2014-Apr-09 02:13N 40°31' W 074°15'1 0.1
2014-Apr-08 19:33N 40°31' W 074°15'6 5.9
2014-Apr-08 18:33N 40°36' W 074°12'5 4.8
2014-Apr-08 17:34N 40°40' W 074°09'4 3.6
2014-Apr-08 16:33N 40°39' W 074°04'2 1.6
2014-Apr-08 15:33N 40°38' W 074°03'0 0.1
2014-Apr-08 14:34N 40°37' W 074°03'3 2.7
2014-Apr-08 13:34N 40°40' W 074°04'1 0.8
2014-Apr-08 12:33N 40°40' W 074°05'  

Dump ship's entire track history

sailing weather and tide predictions

Robert E. Mcallister — WDC8669 — position and weather